Time;durP1;ratioP1;P1;durP2;ratioP2;P2;SDS_P1;SDS_P2;PMS_P1;PMS_P2;Temp;Humidity;BMP_temperature;BMP_pressure;BME280_temperature;BME280_humidity;BME280_pressure;Samples;Min_cycle;Max_cycle;Signal;HPM_P1;HPM_P2
2023/01/05 00:01:09;;;;;;;0.80;0.80;;;9.80;99.90;;;;;;5122021;27;20039;-75
2023/01/05 00:03:35;;;;;;;1.10;1.00;;;9.70;99.90;;;;;;5113697;28;20100;-75
2023/01/05 00:06:14;;;;;;;1.00;1.00;;;9.70;99.90;;;;;;5115849;27;20035;-75
2023/01/05 00:08:40;;;;;;;0.80;0.80;;;9.70;99.90;;;;;;5116378;27;20128;-74
2023/01/05 00:22:30;;;;;;;0.90;0.90;;;9.70;99.90;;;;;;5115770;27;20553;-75
2023/01/05 00:25:03;;;;;;;2.22;1.08;;;9.80;99.90;;;;;;5121591;27;20036;-76
2023/01/05 00:27:29;;;;;;;1.20;1.10;;;9.70;99.90;;;;;;5115645;27;20543;-75
2023/01/05 00:29:55;;;;;;;2.65;1.15;;;9.80;99.90;;;;;;5117512;27;20027;-75
2023/01/05 00:32:21;;;;;;;1.23;1.23;;;9.70;99.90;;;;;;5117973;27;20051;-75
2023/01/05 00:34:47;;;;;;;1.35;1.25;;;9.80;99.90;;;;;;5115060;27;20515;-75
2023/01/05 00:37:13;;;;;;;0.75;0.70;;;9.80;99.90;;;;;;5118536;27;20043;-74
2023/01/05 00:39:38;;;;;;;0.88;0.88;;;9.70;99.90;;;;;;5115599;27;20082;-75
2023/01/05 00:42:04;;;;;;;0.68;0.68;;;9.70;99.90;;;;;;5114770;27;20591;-75
2023/01/05 00:44:29;;;;;;;1.27;1.15;;;9.60;99.90;;;;;;5114620;28;20050;-74
2023/01/05 00:46:55;;;;;;;1.10;1.00;;;9.60;99.90;;;;;;5115083;27;20040;-75
2023/01/05 00:49:21;;;;;;;0.80;0.77;;;9.60;99.90;;;;;;5121432;27;20027;-75
2023/01/05 00:51:46;;;;;;;0.60;0.60;;;9.60;99.90;;;;;;5117183;27;20036;-76
2023/01/05 00:54:12;;;;;;;0.60;0.60;;;9.70;99.90;;;;;;5118380;27;20031;-76
2023/01/05 00:56:38;;;;;;;1.52;1.20;;;9.70;99.90;;;;;;5118026;27;20036;-75
2023/01/05 00:59:04;;;;;;;1.25;1.00;;;9.70;99.90;;;;;;5114845;27;20024;-75
2023/01/05 01:01:29;;;;;;;0.85;0.85;;;9.70;99.90;;;;;;5114546;27;20032;-75
2023/01/05 01:03:55;;;;;;;0.82;0.82;;;9.80;99.90;;;;;;5121972;27;20034;-76
2023/01/05 01:06:22;;;;;;;0.80;0.80;;;9.90;99.90;;;;;;5118471;27;20047;-76
2023/01/05 01:08:47;;;;;;;1.15;1.05;;;9.80;99.90;;;;;;5118740;27;20476;-80
2023/01/05 01:11:15;;;;;;;0.82;0.82;;;9.80;99.90;;;;;;5110025;27;20035;-75
2023/01/05 01:13:41;;;;;;;0.73;0.73;;;9.80;99.90;;;;;;5114335;27;20035;-76
2023/01/05 01:16:08;;;;;;;0.70;0.70;;;9.70;99.90;;;;;;5118489;28;20364;-75
2023/01/05 01:18:34;;;;;;;0.60;0.60;;;9.70;99.90;;;;;;5110321;28;20035;-75
2023/01/05 01:21:00;;;;;;;0.88;0.88;;;9.70;99.90;;;;;;5115931;28;20062;-76
2023/01/05 01:23:26;;;;;;;0.90;0.90;;;9.70;99.90;;;;;;5115269;27;20039;-75
2023/01/05 01:25:52;;;;;;;0.80;0.80;;;9.70;99.90;;;;;;5114956;27;20082;-75
2023/01/05 01:28:17;;;;;;;0.82;0.82;;;9.80;99.90;;;;;;5119312;28;20036;-75
2023/01/05 01:30:46;;;;;;;0.57;0.57;;;9.80;99.90;;;;;;5118388;28;20036;-75
2023/01/05 01:33:11;;;;;;;0.68;0.68;;;9.80;99.90;;;;;;5116841;28;20047;-76
2023/01/05 01:35:37;;;;;;;0.77;0.77;;;9.80;99.90;;;;;;5116584;28;20031;-76
2023/01/05 01:38:03;;;;;;;0.65;0.65;;;9.80;99.90;;;;;;5111412;28;20024;-76
2023/01/05 01:40:29;;;;;;;0.80;0.80;;;9.90;99.90;;;;;;5112456;28;20043;-75
2023/01/05 01:42:54;;;;;;;0.80;0.80;;;9.90;99.90;;;;;;5111402;28;20028;-76
2023/01/05 01:45:22;;;;;;;0.80;0.80;;;10.00;99.90;;;;;;5117280;28;20042;-76
2023/01/05 01:47:57;;;;;;;0.80;0.80;;;10.00;99.90;;;;;;5116230;28;20099;-76
2023/01/05 01:50:49;;;;;;;0.70;0.70;;;10.10;99.90;;;;;;5112754;28;20032;-76
2023/01/05 01:53:21;;;;;;;1.15;1.15;;;10.00;99.90;;;;;;5113035;28;20027;-75
2023/01/05 01:55:48;;;;;;;0.82;0.82;;;10.00;99.90;;;;;;5110077;28;20437;-75
2023/01/05 01:58:17;;;;;;;0.77;0.77;;;10.10;99.90;;;;;;5111071;28;20036;-75
2023/01/05 02:00:45;;;;;;;0.52;0.52;;;10.00;99.90;;;;;;5116656;28;20043;-77
2023/01/05 02:03:10;;;;;;;0.73;0.73;;;10.00;99.90;;;;;;5114943;28;20058;-77
2023/01/05 02:05:36;;;;;;;0.68;0.68;;;10.00;99.90;;;;;;5114032;27;20032;-77
2023/01/05 02:08:03;;;;;;;0.88;0.88;;;10.10;99.90;;;;;;5112847;28;20045;-77
2023/01/05 02:10:42;;;;;;;0.93;0.93;;;10.00;99.90;;;;;;5121132;28;20034;-77
2023/01/05 02:13:45;;;;;;;2.35;0.88;;;9.90;99.90;;;;;;5106778;28;20107;-77
2023/01/05 02:16:32;;;;;;;0.73;0.73;;;9.80;99.90;;;;;;5085986;28;21174;-77
2023/01/05 02:19:10;;;;;;;0.90;0.90;;;9.70;99.90;;;;;;5107463;28;20035;-77
2023/01/05 02:21:44;;;;;;;0.95;0.90;;;9.60;99.90;;;;;;5127041;28;20117;-77
2023/01/05 02:24:40;;;;;;;0.80;0.80;;;9.60;99.90;;;;;;5112059;28;20410;-77
2023/01/05 02:27:27;;;;;;;0.70;0.60;;;9.50;99.90;;;;;;5108076;28;20110;-77
2023/01/05 02:30:11;;;;;;;0.70;0.70;;;9.40;99.90;;;;;;5126618;28;20050;-77
2023/01/05 02:32:59;;;;;;;0.82;0.65;;;9.40;99.90;;;;;;5111549;28;20066;-77
2023/01/05 02:35:40;;;;;;;0.73;0.73;;;9.40;99.90;;;;;;5119728;27;20019;-77
2023/01/05 02:38:30;;;;;;;1.00;0.82;;;9.40;99.90;;;;;;5119189;27;20040;-77
2023/01/05 02:40:59;;;;;;;2.55;1.00;;;9.40;99.90;;;;;;5116255;27;20139;-78
2023/01/05 02:43:27;;;;;;;1.85;1.25;;;9.40;99.90;;;;;;5121538;27;20166;-77
2023/01/05 02:45:54;;;;;;;1.05;0.80;;;9.50;99.90;;;;;;5116000;27;20031;-76
2023/01/05 02:48:20;;;;;;;0.63;0.63;;;9.40;99.90;;;;;;5114320;27;20035;-77
2023/01/05 02:50:52;;;;;;;1.10;1.00;;;9.50;99.90;;;;;;5115734;27;20048;-77
2023/01/05 02:53:32;;;;;;;0.90;0.90;;;9.50;99.90;;;;;;5122494;27;20023;-77
2023/01/05 02:56:19;;;;;;;0.75;0.70;;;9.60;99.90;;;;;;5121813;27;20130;-77
2023/01/05 02:58:51;;;;;;;0.77;0.73;;;9.50;99.90;;;;;;5117809;27;20059;-80
2023/01/05 03:01:24;;;;;;;0.73;0.73;;;9.50;99.90;;;;;;5113498;27;20051;-77
2023/01/05 03:04:13;;;;;;;0.77;0.77;;;9.60;99.90;;;;;;5123443;27;20038;-77
2023/01/05 03:06:58;;;;;;;0.90;0.75;;;9.50;99.90;;;;;;5120007;27;20043;-76
2023/01/05 03:09:28;;;;;;;1.33;0.80;;;9.60;99.90;;;;;;5119236;27;20019;-77
2023/01/05 03:15:05;;;;;;;0.50;0.50;;;9.60;99.90;;;;;;5114296;27;20054;-77
2023/01/05 03:17:44;;;;;;;0.70;0.70;;;9.80;99.90;;;;;;5116802;27;20036;-77
2023/01/05 03:20:13;;;;;;;0.70;0.70;;;9.80;99.90;;;;;;5113261;27;20084;-76
2023/01/05 03:37:16;;;;;;;0.82;0.73;;;9.90;99.90;;;;;;5093054;27;20035;-77
2023/01/05 03:39:45;;;;;;;0.50;0.50;;;10.00;99.90;;;;;;5123435;27;20031;-78
2023/01/05 03:42:12;;;;;;;0.65;0.65;;;10.00;99.90;;;;;;5120764;27;20471;-76
2023/01/05 03:44:40;;;;;;;0.60;0.60;;;10.00;99.90;;;;;;5117100;27;20035;-77
2023/01/05 03:47:06;;;;;;;0.65;0.65;;;10.00;99.90;;;;;;5119069;27;20038;-78
2023/01/05 03:49:32;;;;;;;0.60;0.60;;;10.10;99.90;;;;;;5120020;27;20071;-77
2023/01/05 03:51:58;;;;;;;0.45;0.45;;;10.10;99.90;;;;;;5113514;27;20399;-77
2023/01/05 03:54:23;;;;;;;0.70;0.70;;;10.10;99.90;;;;;;5112115;27;20457;-77
2023/01/05 03:56:49;;;;;;;0.80;0.80;;;10.20;99.90;;;;;;5114203;27;20103;-77
2023/01/05 03:59:14;;;;;;;0.90;0.90;;;10.20;99.90;;;;;;5114646;27;20032;-77
2023/01/05 04:01:40;;;;;;;0.77;0.77;;;10.20;99.90;;;;;;5117074;27;20055;-77
2023/01/05 04:04:06;;;;;;;0.93;0.63;;;10.20;99.90;;;;;;5116146;27;20504;-77
2023/01/05 04:06:31;;;;;;;0.43;0.43;;;10.20;99.90;;;;;;5113797;27;20031;-77
2023/01/05 04:08:57;;;;;;;1.77;0.50;;;10.20;99.90;;;;;;5116734;27;20077;-77
2023/01/05 04:11:23;;;;;;;0.60;0.60;;;10.20;99.90;;;;;;5121282;27;20089;-77
2023/01/05 04:13:50;;;;;;;0.65;0.65;;;10.20;99.90;;;;;;5118222;27;20038;-77
2023/01/05 04:16:16;;;;;;;0.63;0.63;;;10.20;99.90;;;;;;5114718;27;20024;-76
2023/01/05 04:18:42;;;;;;;0.73;0.73;;;10.20;99.90;;;;;;5116746;27;20087;-77
2023/01/05 04:21:08;;;;;;;0.50;0.50;;;10.10;99.90;;;;;;5123062;27;20023;-76
2023/01/05 04:23:34;;;;;;;1.35;0.80;;;10.20;99.90;;;;;;5109767;27;20023;-76
2023/01/05 04:26:00;;;;;;;0.60;0.60;;;10.30;99.90;;;;;;5123001;27;20039;-77
2023/01/05 04:28:25;;;;;;;0.40;0.40;;;10.20;99.90;;;;;;5119408;27;20093;-77
2023/01/05 04:30:53;;;;;;;0.88;0.50;;;10.20;99.90;;;;;;5114128;27;20043;-77
2023/01/05 04:33:20;;;;;;;0.50;0.50;;;10.20;99.90;;;;;;5111662;27;20035;-77
2023/01/05 04:35:46;;;;;;;0.60;0.60;;;10.20;99.90;;;;;;5115912;27;20028;-77
2023/01/05 04:38:12;;;;;;;0.68;0.50;;;10.20;99.90;;;;;;5116651;27;20039;-77
2023/01/05 04:40:37;;;;;;;0.55;0.55;;;10.20;99.90;;;;;;5124238;27;20046;-77
2023/01/05 04:43:03;;;;;;;0.40;0.40;;;10.30;99.90;;;;;;5113531;27;20376;-77
2023/01/05 04:45:29;;;;;;;0.32;0.32;;;10.30;99.90;;;;;;5115461;27;20101;-77
2023/01/05 04:47:54;;;;;;;0.70;0.70;;;10.20;99.90;;;;;;5115572;27;20061;-76
2023/01/05 04:50:20;;;;;;;0.70;0.70;;;10.10;99.90;;;;;;5117012;27;20096;-77
2023/01/05 04:52:46;;;;;;;0.40;0.40;;;10.20;99.90;;;;;;5114546;27;20031;-77
2023/01/05 04:55:11;;;;;;;0.50;0.50;;;10.20;99.90;;;;;;5122333;27;20051;-77
2023/01/05 04:57:37;;;;;;;0.45;0.45;;;10.10;99.90;;;;;;5114750;28;20019;-77
2023/01/05 05:00:03;;;;;;;0.30;0.30;;;10.10;99.90;;;;;;5119989;27;20507;-77
2023/01/05 05:02:30;;;;;;;0.50;0.45;;;10.10;99.90;;;;;;5117119;27;20112;-77
2023/01/05 05:04:55;;;;;;;0.65;0.65;;;10.10;99.90;;;;;;5111246;27;20036;-77
2023/01/05 05:07:21;;;;;;;0.50;0.50;;;10.20;99.90;;;;;;5117056;27;20026;-76
2023/01/05 05:09:47;;;;;;;0.65;0.50;;;10.20;99.90;;;;;;5120621;27;20032;-77
2023/01/05 05:12:13;;;;;;;0.40;0.40;;;10.20;99.90;;;;;;5113307;27;20096;-77
2023/01/05 05:14:38;;;;;;;0.88;0.60;;;10.20;99.90;;;;;;5118827;27;20494;-76
2023/01/05 05:17:05;;;;;;;0.50;0.50;;;10.20;99.90;;;;;;5116140;27;20031;-77
2023/01/05 05:19:30;;;;;;;0.40;0.40;;;10.20;99.90;;;;;;5117636;27;20069;-76
2023/01/05 05:21:56;;;;;;;0.55;0.40;;;10.20;99.90;;;;;;5110356;28;20032;-77
2023/01/05 05:24:22;;;;;;;0.40;0.40;;;10.20;99.90;;;;;;5111698;27;20070;-77
2023/01/05 05:26:48;;;;;;;0.73;0.50;;;10.20;99.90;;;;;;5116246;27;20016;-77
2023/01/05 05:29:13;;;;;;;0.40;0.40;;;10.20;99.90;;;;;;5114129;28;20035;-77
2023/01/05 05:31:39;;;;;;;0.52;0.52;;;10.10;99.90;;;;;;5114162;28;20099;-77
2023/01/05 05:34:05;;;;;;;0.40;0.40;;;10.10;99.90;;;;;;5115882;28;20097;-77
2023/01/05 05:36:31;;;;;;;0.50;0.50;;;10.10;99.90;;;;;;5113761;28;20036;-77
2023/01/05 05:38:57;;;;;;;0.50;0.50;;;10.20;99.90;;;;;;5115100;28;20019;-77
2023/01/05 05:41:23;;;;;;;1.90;0.65;;;10.10;99.90;;;;;;5113826;28;20058;-77
2023/01/05 05:43:48;;;;;;;0.82;0.50;;;10.20;99.90;;;;;;5109852;28;20113;-77
2023/01/05 05:46:14;;;;;;;0.45;0.45;;;10.20;99.90;;;;;;5108081;28;20032;-76
2023/01/05 05:48:40;;;;;;;0.80;0.60;;;10.20;99.90;;;;;;5110583;28;20036;-77
2023/01/05 05:51:05;;;;;;;0.40;0.40;;;10.20;99.90;;;;;;5111601;28;20038;-77
2023/01/05 05:53:31;;;;;;;0.30;0.30;;;10.20;99.90;;;;;;5115873;28;20038;-77
2023/01/05 05:55:56;;;;;;;0.60;0.60;;;10.20;99.90;;;;;;5127060;27;20039;-75
2023/01/05 05:58:22;;;;;;;0.50;0.50;;;10.20;99.90;;;;;;5118288;28;20035;-77
2023/01/05 06:00:47;;;;;;;0.60;0.60;;;10.20;99.90;;;;;;5113741;28;20051;-77
2023/01/05 06:03:14;;;;;;;0.70;0.70;;;10.20;99.90;;;;;;5124091;28;20080;-77
2023/01/05 06:05:39;;;;;;;0.60;0.60;;;10.20;99.90;;;;;;5111371;28;20067;-77
2023/01/05 06:08:05;;;;;;;0.40;0.40;;;10.10;99.90;;;;;;5116898;28;20024;-77
2023/01/05 06:10:31;;;;;;;0.60;0.60;;;10.00;99.90;;;;;;5119859;27;20109;-76
2023/01/05 06:12:56;;;;;;;0.50;0.50;;;10.00;99.90;;;;;;5122650;27;20027;-77
2023/01/05 06:15:22;;;;;;;0.50;0.50;;;10.00;99.90;;;;;;5117761;27;20039;-77
2023/01/05 06:17:48;;;;;;;0.63;0.43;;;9.90;99.90;;;;;;5115337;28;20032;-77
2023/01/05 06:20:15;;;;;;;0.38;0.38;;;10.00;99.90;;;;;;5116797;27;20035;-77
2023/01/05 06:22:41;;;;;;;0.50;0.50;;;10.00;99.90;;;;;;5119182;27;20030;-75
2023/01/05 06:25:08;;;;;;;0.30;0.30;;;9.90;99.90;;;;;;5116547;27;20057;-76
2023/01/05 06:27:34;;;;;;;0.47;0.47;;;10.00;99.90;;;;;;5113863;27;20028;-77
2023/01/05 06:29:59;;;;;;;0.68;0.68;;;10.00;99.90;;;;;;5116840;27;20055;-77
2023/01/05 06:32:25;;;;;;;0.60;0.60;;;10.00;99.90;;;;;;5111556;27;20060;-77
2023/01/05 06:34:51;;;;;;;0.60;0.60;;;10.00;99.90;;;;;;5111969;27;20035;-76
2023/01/05 06:37:16;;;;;;;0.60;0.60;;;10.00;99.90;;;;;;5111102;27;20032;-77
2023/01/05 06:39:42;;;;;;;0.47;0.47;;;10.00;99.90;;;;;;5111967;27;20058;-77
2023/01/05 06:42:07;;;;;;;0.40;0.40;;;10.10;99.90;;;;;;5119190;27;20036;-77
2023/01/05 06:44:33;;;;;;;0.50;0.50;;;10.00;99.90;;;;;;5114182;28;20036;-76
2023/01/05 06:46:58;;;;;;;0.60;0.60;;;10.00;99.90;;;;;;5117652;28;20050;-76
2023/01/05 06:49:24;;;;;;;0.30;0.30;;;10.00;99.90;;;;;;5121094;28;20059;-76
2023/01/05 06:51:49;;;;;;;0.50;0.50;;;10.00;99.90;;;;;;5123008;28;20039;-76
2023/01/05 06:54:15;;;;;;;0.57;0.57;;;10.00;99.90;;;;;;5125030;27;20040;-77
2023/01/05 06:56:41;;;;;;;0.52;0.52;;;10.00;99.90;;;;;;5109552;28;20417;-77
2023/01/05 06:59:06;;;;;;;0.68;0.68;;;10.00;99.90;;;;;;5117162;27;20044;-76
2023/01/05 07:01:32;;;;;;;0.55;0.55;;;10.00;99.90;;;;;;5121877;27;20047;-77
2023/01/05 07:03:57;;;;;;;0.68;0.65;;;10.00;99.90;;;;;;5114549;27;20066;-76
2023/01/05 07:06:23;;;;;;;0.70;0.70;;;10.00;99.90;;;;;;5110551;27;20511;-75
2023/01/05 07:08:49;;;;;;;0.40;0.40;;;10.00;99.90;;;;;;5114309;28;20038;-76
2023/01/05 07:11:14;;;;;;;0.50;0.50;;;9.90;99.90;;;;;;5121108;27;20065;-76
2023/01/05 07:13:40;;;;;;;0.60;0.60;;;9.90;99.90;;;;;;5103372;28;20040;-76
2023/01/05 07:16:05;;;;;;;0.40;0.40;;;9.90;99.90;;;;;;5117822;28;20024;-76
2023/01/05 07:18:31;;;;;;;0.30;0.30;;;9.90;99.90;;;;;;5112926;28;20031;-77
2023/01/05 07:20:59;;;;;;;0.60;0.60;;;9.90;99.90;;;;;;5113615;27;20031;-77
2023/01/05 07:23:25;;;;;;;0.45;0.45;;;10.00;99.90;;;;;;5110359;28;20027;-77
2023/01/05 07:25:50;;;;;;;0.40;0.40;;;10.00;99.90;;;;;;5122839;28;20546;-77
2023/01/05 07:28:16;;;;;;;0.50;0.50;;;10.00;99.90;;;;;;5112439;28;20062;-76
2023/01/05 07:30:41;;;;;;;0.38;0.38;;;10.00;99.90;;;;;;5126440;27;20040;-77
2023/01/05 07:33:07;;;;;;;0.45;0.45;;;10.00;99.90;;;;;;5116729;28;20055;-77
2023/01/05 07:35:33;;;;;;;0.45;0.45;;;10.00;99.90;;;;;;5121998;27;20061;-77
2023/01/05 07:37:58;;;;;;;0.70;0.70;;;10.00;99.90;;;;;;5111913;28;20036;-77
2023/01/05 07:40:24;;;;;;;0.40;0.40;;;10.00;99.90;;;;;;5118582;27;20047;-77
2023/01/05 07:42:51;;;;;;;0.30;0.30;;;10.10;99.90;;;;;;5117337;28;20028;-77
2023/01/05 07:45:16;;;;;;;0.50;0.50;;;10.10;99.90;;;;;;5114756;28;20063;-77
2023/01/05 07:47:42;;;;;;;0.40;0.40;;;10.10;99.90;;;;;;5119107;28;20036;-77
2023/01/05 07:50:08;;;;;;;0.40;0.40;;;10.10;99.90;;;;;;5115082;28;20087;-78
2023/01/05 07:52:33;;;;;;;0.60;0.60;;;10.10;99.90;;;;;;5113059;28;20036;-77
2023/01/05 07:54:59;;;;;;;0.60;0.60;;;10.10;99.90;;;;;;5119537;28;20282;-77
2023/01/05 07:57:24;;;;;;;0.60;0.60;;;10.10;99.90;;;;;;5121165;27;20040;-77
2023/01/05 07:59:50;;;;;;;0.50;0.50;;;10.10;99.90;;;;;;5110238;28;20028;-77
2023/01/05 08:02:16;;;;;;;0.50;0.50;;;10.10;99.90;;;;;;5111021;28;20069;-77
2023/01/05 08:04:41;;;;;;;0.40;0.40;;;10.00;99.90;;;;;;5116778;28;20012;-77
2023/01/05 08:07:10;;;;;;;0.50;0.50;;;9.80;99.90;;;;;;5119648;28;20027;-77
2023/01/05 08:12:20;;;;;;;1.75;0.57;;;9.70;99.90;;;;;;5124448;28;20026;-77
2023/01/05 08:14:46;;;;;;;0.40;0.40;;;9.60;99.90;;;;;;5106185;28;20079;-77
2023/01/05 08:17:11;;;;;;;1.05;0.70;;;9.60;99.90;;;;;;5119634;28;20027;-77
2023/01/05 08:19:37;;;;;;;1.02;0.55;;;9.60;99.90;;;;;;5116656;28;20035;-77
2023/01/05 08:22:02;;;;;;;0.43;0.43;;;9.60;99.90;;;;;;5122652;28;20074;-77
2023/01/05 08:24:28;;;;;;;0.52;0.52;;;9.50;99.90;;;;;;5120044;28;20376;-76
2023/01/05 08:26:54;;;;;;;0.30;0.30;;;9.50;99.90;;;;;;5115191;28;20036;-76
2023/01/05 08:29:20;;;;;;;0.50;0.50;;;9.50;99.90;;;;;;5117203;27;20027;-76
2023/01/05 08:31:46;;;;;;;1.20;0.35;;;9.50;99.90;;;;;;5115076;28;20048;-77
2023/01/05 08:34:11;;;;;;;0.40;0.40;;;9.50;99.90;;;;;;5110629;27;20459;-76
2023/01/05 08:36:38;;;;;;;1.17;1.00;;;9.50;99.90;;;;;;5119057;27;20087;-76
2023/01/05 08:39:04;;;;;;;0.32;0.32;;;9.50;99.90;;;;;;5111134;27;20456;-77
2023/01/05 08:41:34;;;;;;;0.60;0.60;;;9.50;99.90;;;;;;5117533;28;20091;-76
2023/01/05 08:44:02;;;;;;;0.60;0.60;;;9.50;99.90;;;;;;5122249;27;20040;-75
2023/01/05 08:46:31;;;;;;;0.40;0.40;;;9.50;99.90;;;;;;5118521;27;20623;-77
2023/01/05 08:48:59;;;;;;;1.67;0.50;;;9.50;99.90;;;;;;5109702;28;20067;-76
2023/01/05 08:51:25;;;;;;;0.50;0.50;;;9.50;99.90;;;;;;5122416;28;20020;-76
2023/01/05 08:53:51;;;;;;;0.50;0.50;;;9.50;99.90;;;;;;5119352;28;20028;-76
2023/01/05 08:56:18;;;;;;;0.30;0.30;;;9.50;99.90;;;;;;5106614;28;20039;-76
2023/01/05 08:58:44;;;;;;;0.50;0.50;;;9.50;99.90;;;;;;5119460;28;20847;-77
2023/01/05 09:01:12;;;;;;;0.47;0.47;;;9.50;99.90;;;;;;5118511;27;20264;-76
2023/01/05 09:03:38;;;;;;;0.60;0.60;;;9.50;99.90;;;;;;5119849;28;20042;-75
2023/01/05 09:06:08;;;;;;;0.73;0.52;;;9.50;99.90;;;;;;5118840;27;20035;-76
2023/01/05 09:08:34;;;;;;;0.50;0.50;;;9.50;99.90;;;;;;5119854;28;20032;-76
2023/01/05 09:11:20;;;;;;;0.30;0.30;;;9.50;99.90;;;;;;5117510;28;20380;-76
2023/01/05 09:13:51;;;;;;;0.50;0.50;;;9.50;99.90;;;;;;5110754;28;20036;-76
2023/01/05 09:16:21;;;;;;;0.40;0.40;;;9.60;99.90;;;;;;5118914;27;20027;-76
2023/01/05 09:18:48;;;;;;;0.45;0.45;;;9.60;99.90;;;;;;5118788;28;20471;-76
2023/01/05 09:21:15;;;;;;;0.50;0.50;;;9.60;99.90;;;;;;5110505;28;20538;-76
2023/01/05 09:23:42;;;;;;;0.55;0.55;;;9.60;99.90;;;;;;5116834;28;20052;-77
2023/01/05 09:26:11;;;;;;;0.50;0.50;;;9.60;99.90;;;;;;5108267;28;20019;-75
2023/01/05 09:28:37;;;;;;;0.50;0.50;;;9.60;99.90;;;;;;5113170;28;20039;-76
2023/01/05 09:31:10;;;;;;;0.80;0.80;;;9.60;99.90;;;;;;5105226;28;20032;-77
2023/01/05 09:33:37;;;;;;;0.60;0.60;;;9.60;99.90;;;;;;5118673;28;20058;-76
2023/01/05 09:36:03;;;;;;;0.50;0.50;;;9.60;99.90;;;;;;5114414;28;20035;-76
2023/01/05 09:38:29;;;;;;;0.40;0.40;;;9.70;99.90;;;;;;5113836;28;20047;-78
2023/01/05 09:40:59;;;;;;;1.75;0.85;;;9.70;99.90;;;;;;5116336;28;20047;-76
2023/01/05 09:43:29;;;;;;;0.50;0.50;;;9.80;99.90;;;;;;5114491;28;20028;-76
2023/01/05 09:45:56;;;;;;;0.43;0.43;;;9.80;99.90;;;;;;5111982;27;20046;-76
2023/01/05 09:48:23;;;;;;;0.70;0.70;;;9.80;99.90;;;;;;5125201;28;20032;-75
2023/01/05 09:50:50;;;;;;;0.60;0.57;;;9.80;99.90;;;;;;5120093;28;20028;-76
2023/01/05 09:53:24;;;;;;;1.75;0.70;;;9.80;99.90;;;;;;5122330;28;20291;-75
2023/01/05 09:55:50;;;;;;;0.60;0.57;;;9.80;99.90;;;;;;5116438;27;20038;-75
2023/01/05 09:58:25;;;;;;;0.60;0.60;;;9.80;99.90;;;;;;5118601;28;20039;-74
2023/01/05 10:01:12;;;;;;;0.60;0.55;;;9.80;99.90;;;;;;5112740;28;20059;-76
2023/01/05 10:03:49;;;;;;;0.50;0.50;;;9.70;99.90;;;;;;5117304;28;20016;-75
2023/01/05 10:06:15;;;;;;;0.50;0.50;;;9.70;99.90;;;;;;5120658;28;20062;-74
2023/01/05 10:08:48;;;;;;;0.60;0.60;;;9.70;99.90;;;;;;5117579;28;20023;-75
2023/01/05 10:14:13;;;;;;;0.40;0.40;;;9.70;99.90;;;;;;5112189;28;20058;-75
2023/01/05 10:16:42;;;;;;;0.40;0.40;;;9.70;99.90;;;;;;5124499;27;20115;-75
2023/01/05 10:19:19;;;;;;;0.45;0.45;;;9.70;99.90;;;;;;5107555;27;20543;-75
2023/01/05 10:22:22;;;;;;;0.38;0.38;;;9.70;99.90;;;;;;5110233;28;20149;-75
2023/01/05 10:24:53;;;;;;;0.47;0.47;;;9.70;99.90;;;;;;5112933;28;20042;-76
2023/01/05 10:27:35;;;;;;;0.38;0.38;;;9.70;99.90;;;;;;5119477;28;20008;-76
2023/01/05 10:30:38;;;;;;;3.30;0.47;;;9.70;99.90;;;;;;5118830;28;20441;-76
2023/01/05 10:33:19;;;;;;;1.90;0.40;;;9.80;99.90;;;;;;5108691;28;20056;-76
2023/01/05 10:36:01;;;;;;;0.65;0.65;;;9.90;99.90;;;;;;5116762;28;20081;-76
2023/01/05 10:38:57;;;;;;;0.80;0.80;;;9.90;99.90;;;;;;5122084;28;20043;-76
2023/01/05 10:41:56;;;;;;;0.60;0.60;;;9.90;99.90;;;;;;5123504;27;20031;-76
2023/01/05 10:44:50;;;;;;;0.60;0.60;;;10.00;99.90;;;;;;5119870;28;20043;-75
2023/01/05 10:47:16;;;;;;;0.60;0.60;;;10.00;99.90;;;;;;5115387;28;20031;-76
2023/01/05 10:49:44;;;;;;;2.67;0.88;;;10.00;99.90;;;;;;5114001;28;20047;-76
2023/01/05 10:52:14;;;;;;;0.70;0.70;;;10.10;99.90;;;;;;5110571;28;20055;-75
2023/01/05 10:54:59;;;;;;;0.70;0.70;;;10.10;99.90;;;;;;5122560;27;20115;-76
2023/01/05 10:57:31;;;;;;;0.85;0.73;;;10.20;99.90;;;;;;5124743;27;20493;-76
2023/01/05 11:00:05;;;;;;;1.27;0.70;;;10.20;99.90;;;;;;5112733;28;20047;-75
2023/01/05 11:02:36;;;;;;;0.63;0.63;;;10.30;99.90;;;;;;5110786;28;20062;-76
2023/01/05 11:05:19;;;;;;;1.00;0.50;;;10.30;99.90;;;;;;5110670;28;20091;-76
2023/01/05 11:07:54;;;;;;;1.75;0.73;;;10.40;99.90;;;;;;5119007;28;20028;-76
2023/01/05 11:10:35;;;;;;;0.77;0.77;;;10.40;99.90;;;;;;5123357;28;20032;-78
2023/01/05 11:13:14;;;;;;;0.60;0.60;;;10.50;99.90;;;;;;5117399;28;20042;-76
2023/01/05 11:15:42;;;;;;;0.40;0.40;;;10.50;99.90;;;;;;5119161;28;20019;-76
2023/01/05 11:18:39;;;;;;;0.55;0.55;;;10.60;99.90;;;;;;5119572;28;20095;-76
2023/01/05 11:21:16;;;;;;;0.50;0.50;;;10.70;99.90;;;;;;5128820;27;20472;-76
2023/01/05 11:23:47;;;;;;;0.70;0.50;;;10.70;99.90;;;;;;5107430;28;20488;-76
2023/01/05 11:26:34;;;;;;;0.77;0.77;;;10.80;99.90;;;;;;5117127;28;20112;-76
2023/01/05 11:29:12;;;;;;;0.47;0.47;;;10.80;99.90;;;;;;5120562;28;20035;-76
2023/01/05 11:31:48;;;;;;;0.75;0.47;;;10.80;99.90;;;;;;5121991;28;20055;-76
2023/01/05 11:34:29;;;;;;;0.73;0.50;;;10.80;99.90;;;;;;5123045;28;20501;-76
2023/01/05 11:37:12;;;;;;;0.40;0.40;;;10.90;99.90;;;;;;5113641;28;20055;-76
2023/01/05 11:39:46;;;;;;;0.40;0.40;;;10.90;99.90;;;;;;5118244;27;20028;-76
2023/01/05 11:42:24;;;;;;;0.40;0.40;;;10.90;99.90;;;;;;5115107;28;20035;-75
2023/01/05 11:44:51;;;;;;;0.40;0.40;;;10.90;99.90;;;;;;5116092;28;20780;-75
2023/01/05 11:47:42;;;;;;;0.30;0.30;;;10.90;99.90;;;;;;5110992;28;20049;-75
2023/01/05 11:50:08;;;;;;;0.40;0.40;;;10.90;99.90;;;;;;5119202;28;20028;-75
2023/01/05 11:52:35;;;;;;;0.90;0.47;;;10.90;99.90;;;;;;5114069;28;20053;-75
2023/01/05 11:55:29;;;;;;;0.60;0.60;;;10.90;99.90;;;;;;5116605;27;20036;-75
2023/01/05 11:58:11;;;;;;;0.50;0.50;;;10.90;99.90;;;;;;5119894;28;20130;-76
2023/01/05 12:00:42;;;;;;;0.40;0.40;;;10.80;99.90;;;;;;5114334;28;20035;-76
2023/01/05 12:03:29;;;;;;;1.73;0.90;;;10.80;99.90;;;;;;5112044;28;20111;-75
2023/01/05 12:06:22;;;;;;;1.38;0.40;;;10.90;99.90;;;;;;5124448;28;20038;-76
2023/01/05 12:09:17;;;;;;;0.43;0.43;;;10.90;99.90;;;;;;5122107;28;20062;-76
2023/01/05 12:12:08;;;;;;;0.40;0.40;;;10.80;99.90;;;;;;5115041;28;20007;-76
2023/01/05 12:15:07;;;;;;;0.40;0.40;;;10.80;99.90;;;;;;5108705;28;20044;-75
2023/01/05 12:17:54;;;;;;;0.50;0.50;;;10.80;99.90;;;;;;5115282;28;20039;-75
2023/01/05 12:20:45;;;;;;;0.70;0.70;;;10.70;99.90;;;;;;5114966;28;20027;-75
2023/01/05 12:23:33;;;;;;;0.50;0.50;;;10.80;99.90;;;;;;5112714;27;20043;-76
2023/01/05 12:26:23;;;;;;;0.40;0.40;;;10.80;99.90;;;;;;5109826;28;20357;-76
2023/01/05 12:28:55;;;;;;;0.75;0.75;;;10.70;99.90;;;;;;5117929;28;20044;-76
2023/01/05 12:31:54;;;;;;;0.30;0.30;;;10.70;99.90;;;;;;5119235;28;20517;-76
2023/01/05 12:34:44;;;;;;;0.65;0.60;;;10.70;99.90;;;;;;5118849;28;20062;-77
2023/01/05 12:37:31;;;;;;;0.50;0.50;;;10.60;99.90;;;;;;5115513;27;20047;-77
2023/01/05 12:40:37;;;;;;;1.58;0.60;;;10.60;99.90;;;;;;5112218;28;20085;-76
2023/01/05 12:43:09;;;;;;;0.98;0.90;;;10.60;99.90;;;;;;5124008;28;20034;-76
2023/01/05 12:46:02;;;;;;;0.75;0.70;;;10.60;99.90;;;;;;5112712;28;20059;-76
2023/01/05 12:48:30;;;;;;;0.60;0.60;;;10.60;99.90;;;;;;5116953;28;20444;-76
2023/01/05 12:51:01;;;;;;;;;;;10.50;99.90;;;;;;5106085;28;20020;-76
2023/01/05 12:53:41;;;;;;;1.20;1.00;;;10.40;99.90;;;;;;5120181;28;19911;-76
2023/01/05 12:56:33;;;;;;;0.85;0.85;;;10.30;99.90;;;;;;5108640;28;20470;-77
2023/01/05 12:59:06;;;;;;;0.73;0.65;;;10.30;99.90;;;;;;5103361;28;20353;-76
2023/01/05 13:01:37;;;;;;;1.20;1.10;;;10.30;99.90;;;;;;5108573;28;20043;-76
2023/01/05 13:04:19;;;;;;;1.02;1.02;;;10.20;99.90;;;;;;5118665;28;20097;-75
2023/01/05 13:06:50;;;;;;;12.13;1.38;;;10.20;99.90;;;;;;5113962;28;20450;-76
2023/01/05 13:09:20;;;;;;;2.45;1.00;;;10.20;99.90;;;;;;5119137;28;20083;-76
2023/01/05 13:11:56;;;;;;;2.63;0.90;;;10.20;99.90;;;;;;5114353;28;20019;-76
2023/01/05 13:14:28;;;;;;;3.20;1.23;;;10.30;99.90;;;;;;5121384;28;20414;-77
2023/01/05 13:16:59;;;;;;;1.42;1.30;;;10.20;99.90;;;;;;5111865;28;20380;-76
2023/01/05 13:19:40;;;;;;;0.88;0.80;;;10.20;99.90;;;;;;5110371;28;20036;-76
2023/01/05 13:22:20;;;;;;;0.90;0.90;;;10.20;99.90;;;;;;5132236;27;20114;-78
2023/01/05 13:24:53;;;;;;;1.67;1.25;;;10.10;99.90;;;;;;5108186;28;20114;-78
2023/01/05 13:27:19;;;;;;;2.35;1.30;;;10.10;99.90;;;;;;5116292;28;20065;-78
2023/01/05 13:29:49;;;;;;;4.47;1.05;;;10.10;99.90;;;;;;5114444;28;20058;-78
2023/01/05 13:32:34;;;;;;;1.27;0.90;;;10.10;99.90;;;;;;5118565;27;20776;-78
2023/01/05 13:35:26;;;;;;;1.50;0.95;;;10.00;99.90;;;;;;5111735;28;20381;-78
2023/01/05 13:38:25;;;;;;;0.82;0.82;;;10.00;99.90;;;;;;5115170;28;20058;-77
2023/01/05 13:41:06;;;;;;;2.00;1.58;;;10.00;99.90;;;;;;5118064;28;20023;-78
2023/01/05 13:44:07;;;;;;;4.47;1.00;;;9.90;99.90;;;;;;5118211;28;20043;-77
2023/01/05 13:46:40;;;;;;;2.10;0.90;;;9.90;99.90;;;;;;5115374;28;20114;-78